Altamont, Missouri
Current Conditions -  °F | °C
As of 12:55 PM on Saturday 25 Oct 2014 (Local Time) from KGPH Reporting Station
Haze Haze  
Wind Chill: 24°   Ceiling: 700
Heat Index: 24°   Visibility: 1.7mi
Dew Point: 11°   Wind: 7mph
Humidity: 44%   Direction: 50°NE
Pressure: 30.07"   Gusts: NA
Location:  39.89°N, 94.09°W
Report Text: KGPH 251755Z AUTO 05006KT 1 3/4SM HZ VV007 24/11 A3007 RMK AO2 VIS 3/4V5
Loading
Personal Weather Stations






























Interactive Weather Map
Tropical Storm Tracking
New forecast layout! Learn more

10-Day Weather Forecast

Advertisements
Track Severe Weather on mobile